Time;durP1;ratioP1;P1;durP2;ratioP2;P2;SDS_P1;SDS_P2;PMS_P1;PMS_P2;Temp;Humidity;BMP_temperature;BMP_pressure;BME280_temperature;BME280_humidity;BME280_pressure;Samples;Min_cycle;Max_cycle;Signal;HPM_P1;HPM_P2
2022/07/18 00:00:12;;;;;;;1.50;0.60;;;19.20;54.20;;;;;;5022306;28;20412;-77
2022/07/18 00:02:39;;;;;;;2.15;0.60;;;19.20;54.30;;;;;;5055985;28;20071;-76
2022/07/18 00:05:07;;;;;;;1.00;0.50;;;19.20;54.40;;;;;;5037388;28;20040;-77
2022/07/18 00:07:34;;;;;;;1.23;0.43;;;19.20;54.60;;;;;;5039400;28;20056;-77
2022/07/18 00:10:02;;;;;;;1.83;0.50;;;19.10;54.60;;;;;;5025004;28;20412;-76
2022/07/18 00:12:28;;;;;;;1.83;0.50;;;19.10;54.80;;;;;;5048854;28;20048;-76
2022/07/18 00:14:56;;;;;;;1.30;0.40;;;19.10;55.00;;;;;;5021467;28;20037;-76
2022/07/18 00:17:23;;;;;;;1.30;0.60;;;19.00;55.10;;;;;;5035618;28;20075;-77
2022/07/18 00:19:50;;;;;;;1.20;0.50;;;19.00;55.20;;;;;;5057957;28;20040;-77
2022/07/18 00:22:17;;;;;;;1.20;0.40;;;19.00;55.80;;;;;;5054789;28;20428;-76
2022/07/18 00:24:44;;;;;;;1.95;0.60;;;19.00;55.30;;;;;;5021329;28;20094;-77
2022/07/18 00:27:11;;;;;;;1.80;0.52;;;18.90;55.40;;;;;;5040466;28;20086;-76
2022/07/18 00:29:39;;;;;;;1.45;0.47;;;18.90;55.50;;;;;;5036793;28;20045;-76
2022/07/18 00:32:07;;;;;;;2.00;0.52;;;18.90;55.60;;;;;;5023119;28;20041;-76
2022/07/18 00:34:35;;;;;;;1.08;0.40;;;18.80;55.70;;;;;;5056504;28;20553;-77
2022/07/18 00:37:03;;;;;;;1.75;0.40;;;18.80;55.80;;;;;;5006603;28;20078;-77
2022/07/18 00:39:30;;;;;;;1.60;0.60;;;18.70;55.90;;;;;;5052715;28;20484;-77
2022/07/18 00:41:57;;;;;;;1.35;0.40;;;18.70;56.00;;;;;;5009253;28;20068;-76
2022/07/18 00:44:28;;;;;;;2.03;0.50;;;18.70;56.20;;;;;;5026064;28;20118;-76
2022/07/18 00:46:58;;;;;;;1.70;0.45;;;18.60;56.30;;;;;;5039525;28;20531;-76
2022/07/18 00:49:26;;;;;;;2.45;0.40;;;18.60;56.40;;;;;;5054783;28;20119;-76
2022/07/18 00:51:55;;;;;;;1.30;0.40;;;18.60;56.40;;;;;;5052709;28;20044;-77
2022/07/18 00:54:22;;;;;;;2.25;0.40;;;18.50;56.50;;;;;;5050154;28;20052;-76
2022/07/18 00:56:50;;;;;;;1.83;0.50;;;18.50;56.60;;;;;;5073899;28;20094;-77
2022/07/18 00:59:17;;;;;;;1.15;0.47;;;18.50;57.30;;;;;;5036154;28;20163;-77
2022/07/18 01:01:47;;;;;;;1.63;0.50;;;18.40;56.70;;;;;;5054423;28;20048;-77
2022/07/18 01:04:21;;;;;;;1.23;0.40;;;18.40;56.90;;;;;;5048740;28;20048;-76
2022/07/18 01:06:50;;;;;;;2.58;0.57;;;18.40;57.00;;;;;;5055499;28;20408;-77
2022/07/18 01:09:18;;;;;;;1.27;0.50;;;18.30;57.00;;;;;;5039276;28;20071;-76
2022/07/18 01:11:46;;;;;;;2.17;0.47;;;18.30;57.10;;;;;;5056039;28;20040;-76
2022/07/18 01:14:15;;;;;;;1.17;0.40;;;18.30;57.20;;;;;;5038813;28;20423;-76
2022/07/18 01:16:42;;;;;;;3.40;0.80;;;18.20;57.20;;;;;;5052489;28;20039;-77
2022/07/18 01:19:11;;;;;;;1.75;0.80;;;18.20;57.30;;;;;;5032144;28;20032;-77
2022/07/18 01:21:39;;;;;;;1.30;0.55;;;18.20;57.30;;;;;;5019514;28;20521;-77
2022/07/18 01:24:06;;;;;;;1.50;0.50;;;18.10;57.30;;;;;;5041824;28;20133;-78
2022/07/18 01:26:33;;;;;;;1.88;0.50;;;18.10;57.40;;;;;;5055367;28;20045;-77
2022/07/18 01:29:01;;;;;;;1.20;0.38;;;18.10;57.40;;;;;;5035707;28;20037;-77
2022/07/18 01:31:33;;;;;;;1.60;0.52;;;18.10;57.30;;;;;;5050078;28;20040;-77
2022/07/18 01:34:00;;;;;;;1.33;0.50;;;18.10;57.30;;;;;;5019962;28;20041;-77
2022/07/18 01:36:27;;;;;;;1.38;0.50;;;18.00;57.30;;;;;;5052823;28;20416;-77
2022/07/18 01:38:55;;;;;;;2.38;0.60;;;18.00;57.40;;;;;;5037660;28;20032;-76
2022/07/18 01:41:22;;;;;;;1.75;0.52;;;18.00;57.50;;;;;;5037983;28;20500;-77
2022/07/18 01:43:49;;;;;;;1.40;0.47;;;18.00;57.50;;;;;;5021452;28;20061;-77
2022/07/18 01:46:16;;;;;;;1.45;0.40;;;18.00;57.50;;;;;;5038678;28;20045;-78
2022/07/18 01:48:46;;;;;;;0.85;0.30;;;17.90;57.50;;;;;;5038696;28;20045;-77
2022/07/18 01:51:14;;;;;;;1.17;0.40;;;17.90;57.50;;;;;;5056123;28;20041;-75
2022/07/18 01:53:42;;;;;;;1.75;0.50;;;17.90;57.50;;;;;;5061465;28;20040;-77
2022/07/18 01:56:12;;;;;;;2.05;0.40;;;17.90;57.60;;;;;;5023934;28;20060;-76
2022/07/18 01:58:40;;;;;;;1.15;0.40;;;17.80;57.60;;;;;;5036126;28;20115;-76
2022/07/18 02:01:06;;;;;;;1.20;0.50;;;17.80;57.70;;;;;;5055071;28;20045;-78
2022/07/18 02:03:34;;;;;;;0.90;0.40;;;17.80;57.80;;;;;;5038517;28;20091;-76
2022/07/18 02:06:01;;;;;;;1.55;0.50;;;17.80;57.80;;;;;;5071727;28;20044;-76
2022/07/18 02:08:31;;;;;;;2.35;0.75;;;17.70;57.80;;;;;;5022099;28;20060;-77
2022/07/18 02:10:58;;;;;;;1.45;0.50;;;17.70;57.80;;;;;;5038237;28;20480;-77
2022/07/18 02:13:25;;;;;;;1.92;0.70;;;17.70;57.90;;;;;;5038452;28;20040;-77
2022/07/18 02:15:55;;;;;;;0.85;0.43;;;17.70;58.00;;;;;;5038596;28;20087;-77
2022/07/18 02:18:22;;;;;;;1.33;0.43;;;17.60;58.10;;;;;;5034552;28;20037;-76
2022/07/18 02:20:49;;;;;;;1.23;0.45;;;17.60;58.20;;;;;;5042639;28;20057;-76
2022/07/18 02:23:16;;;;;;;1.55;0.60;;;17.60;58.30;;;;;;5038402;28;20071;-77
2022/07/18 02:25:44;;;;;;;1.67;0.60;;;17.60;58.40;;;;;;5052651;28;20044;-77
2022/07/18 02:28:11;;;;;;;1.85;0.68;;;17.50;58.40;;;;;;5037897;28;20049;-77
2022/07/18 02:30:38;;;;;;;1.85;0.60;;;17.50;58.40;;;;;;5037981;28;20048;-77
2022/07/18 02:33:05;;;;;;;1.95;0.75;;;17.50;58.50;;;;;;5022261;28;20025;-77
2022/07/18 02:35:33;;;;;;;1.67;0.43;;;17.50;58.60;;;;;;5035510;28;20163;-77
2022/07/18 02:38:01;;;;;;;2.90;0.47;;;17.40;58.70;;;;;;5014808;28;20040;-77
2022/07/18 02:40:28;;;;;;;2.53;0.60;;;17.40;58.70;;;;;;5037126;28;20057;-77
2022/07/18 02:42:55;;;;;;;1.85;0.60;;;17.40;58.70;;;;;;5006237;28;20041;-77
2022/07/18 02:45:22;;;;;;;2.20;0.68;;;17.40;58.80;;;;;;5056336;28;20420;-77
2022/07/18 02:47:49;;;;;;;2.53;0.68;;;17.30;58.80;;;;;;5023895;28;20492;-77
2022/07/18 02:50:16;;;;;;;2.47;0.60;;;17.30;59.00;;;;;;5051346;28;20451;-77
2022/07/18 02:52:46;;;;;;;1.38;0.50;;;17.30;59.10;;;;;;5054339;28;20056;-77
2022/07/18 02:55:13;;;;;;;1.88;0.60;;;17.30;59.20;;;;;;5053543;28;20051;-77
2022/07/18 02:57:41;;;;;;;2.45;0.55;;;17.20;59.30;;;;;;5054411;28;20041;-77
2022/07/18 03:00:11;;;;;;;1.55;0.47;;;17.20;59.40;;;;;;5022023;28;20032;-77
2022/07/18 03:02:38;;;;;;;1.63;0.50;;;17.20;59.50;;;;;;5071105;28;20055;-77
2022/07/18 03:05:06;;;;;;;1.67;0.55;;;17.10;59.50;;;;;;5052677;28;20083;-78
2022/07/18 03:07:33;;;;;;;1.38;0.47;;;17.10;59.60;;;;;;5047991;28;20373;-77
2022/07/18 03:10:04;;;;;;;2.50;0.70;;;17.10;59.70;;;;;;5037733;28;20127;-78
2022/07/18 03:12:32;;;;;;;1.50;0.60;;;17.10;59.80;;;;;;5037519;28;20094;-77
2022/07/18 03:14:59;;;;;;;1.55;0.50;;;17.10;60.00;;;;;;5067327;28;20040;-77
2022/07/18 03:17:26;;;;;;;1.55;0.55;;;17.00;60.00;;;;;;5043336;28;20044;-76
2022/07/18 03:19:53;;;;;;;1.92;0.70;;;17.00;60.10;;;;;;5037469;28;20098;-78
2022/07/18 03:22:20;;;;;;;2.03;0.70;;;17.00;60.20;;;;;;5054304;28;20059;-78
2022/07/18 03:24:48;;;;;;;2.13;0.75;;;17.00;60.30;;;;;;5050722;28;20048;-78
2022/07/18 03:27:15;;;;;;;2.53;0.60;;;17.00;60.40;;;;;;5050296;28;20128;-78
2022/07/18 03:29:45;;;;;;;1.50;0.60;;;17.00;60.50;;;;;;5066055;28;20102;-78
2022/07/18 03:32:12;;;;;;;2.28;0.73;;;16.90;60.50;;;;;;5074313;28;20052;-78
2022/07/18 03:34:39;;;;;;;1.55;0.68;;;16.90;60.60;;;;;;5075933;28;20047;-77
2022/07/18 03:37:06;;;;;;;1.40;0.57;;;16.90;60.70;;;;;;5057890;28;20437;-78
2022/07/18 03:39:33;;;;;;;1.83;0.65;;;16.90;60.80;;;;;;5041264;28;20154;-78
2022/07/18 03:42:00;;;;;;;2.00;0.70;;;16.90;60.80;;;;;;5040630;28;20496;-78
2022/07/18 03:44:27;;;;;;;1.75;0.63;;;16.90;60.90;;;;;;5037799;28;20056;-78
2022/07/18 03:46:54;;;;;;;2.55;0.75;;;16.80;60.90;;;;;;5038564;28;20128;-77
2022/07/18 03:49:21;;;;;;;1.40;0.50;;;16.80;61.00;;;;;;5042948;28;20056;-77
2022/07/18 03:51:49;;;;;;;1.95;0.50;;;16.80;61.10;;;;;;5075203;28;20033;-77
2022/07/18 03:54:16;;;;;;;2.45;0.57;;;16.80;61.20;;;;;;5024221;28;20032;-78
2022/07/18 03:56:45;;;;;;;3.45;0.80;;;16.80;61.20;;;;;;5054884;28;20095;-78
2022/07/18 03:59:12;;;;;;;1.58;0.57;;;16.80;61.30;;;;;;5040497;28;20078;-77
2022/07/18 04:01:43;;;;;;;1.50;0.60;;;16.80;61.40;;;;;;5072232;28;20041;-78
2022/07/18 04:04:16;;;;;;;1.52;0.50;;;16.80;61.50;;;;;;5073284;28;20479;-78
2022/07/18 04:06:46;;;;;;;1.55;0.52;;;16.80;61.50;;;;;;5057461;28;20045;-78
2022/07/18 04:09:15;;;;;;;2.20;0.73;;;16.80;61.60;;;;;;5011739;28;20071;-78
2022/07/18 04:11:42;;;;;;;1.55;0.60;;;16.80;61.60;;;;;;5054517;28;20033;-78
2022/07/18 04:14:10;;;;;;;1.23;0.50;;;16.80;61.70;;;;;;5047834;28;20071;-78
2022/07/18 04:16:37;;;;;;;1.65;0.50;;;16.80;61.70;;;;;;5056696;28;20041;-78
2022/07/18 04:19:04;;;;;;;1.15;0.52;;;16.90;61.80;;;;;;5037737;28;20040;-77
2022/07/18 04:21:31;;;;;;;2.75;0.60;;;16.90;61.80;;;;;;5051679;28;20365;-77
2022/07/18 04:23:58;;;;;;;1.67;0.60;;;16.90;61.80;;;;;;5040956;28;20067;-78
2022/07/18 04:26:25;;;;;;;2.03;0.60;;;16.90;61.90;;;;;;5028094;28;20057;-77
2022/07/18 04:28:52;;;;;;;1.63;0.60;;;16.90;62.00;;;;;;5039514;28;20037;-78
2022/07/18 04:31:19;;;;;;;1.88;0.65;;;16.90;62.10;;;;;;5014185;28;20520;-77
2022/07/18 04:33:47;;;;;;;1.35;0.65;;;16.90;62.10;;;;;;5037450;28;20087;-77
2022/07/18 04:36:14;;;;;;;2.05;0.70;;;17.00;62.30;;;;;;5056502;28;20547;-78
2022/07/18 04:38:41;;;;;;;1.73;0.68;;;16.90;62.20;;;;;;5021353;28;20120;-78
2022/07/18 04:41:08;;;;;;;1.23;0.43;;;17.00;62.30;;;;;;5042925;28;20040;-77
2022/07/18 04:43:35;;;;;;;1.70;0.77;;;17.00;62.30;;;;;;5022524;28;21061;-77
2022/07/18 04:46:02;;;;;;;2.22;0.70;;;17.00;62.30;;;;;;5039549;28;20051;-77
2022/07/18 04:48:30;;;;;;;2.30;0.60;;;17.00;62.30;;;;;;5029627;28;20045;-78
2022/07/18 04:50:57;;;;;;;1.73;0.57;;;17.00;62.40;;;;;;5039216;28;20476;-75
2022/07/18 04:53:24;;;;;;;1.30;0.70;;;17.10;62.50;;;;;;5039017;28;20040;-76
2022/07/18 04:55:51;;;;;;;1.88;0.60;;;17.10;62.50;;;;;;5038259;28;20098;-76
2022/07/18 04:58:18;;;;;;;1.52;0.45;;;17.20;62.50;;;;;;5022482;28;20060;-77
2022/07/18 05:00:45;;;;;;;1.85;0.63;;;17.30;62.40;;;;;;5057074;28;20048;-76
2022/07/18 05:03:13;;;;;;;1.70;0.70;;;17.30;62.30;;;;;;5040393;28;20056;-79
2022/07/18 05:05:41;;;;;;;2.15;0.70;;;17.40;62.00;;;;;;5039348;28;20429;-76
2022/07/18 05:08:12;;;;;;;2.60;0.82;;;17.50;61.80;;;;;;5038997;28;20054;-75
2022/07/18 05:10:39;;;;;;;3.33;0.63;;;17.60;61.60;;;;;;5024478;28;20048;-77
2022/07/18 05:13:07;;;;;;;2.55;0.70;;;17.70;61.30;;;;;;5058718;28;20044;-77
2022/07/18 05:15:34;;;;;;;2.00;0.70;;;17.70;61.00;;;;;;5039306;28;20500;-76
2022/07/18 05:18:01;;;;;;;1.88;0.60;;;17.80;60.80;;;;;;5021452;28;20041;-76
2022/07/18 05:20:28;;;;;;;2.38;0.57;;;17.90;60.50;;;;;;5040825;28;20502;-76
2022/07/18 05:22:55;;;;;;;2.13;0.50;;;18.00;60.90;;;;;;5022373;28;20422;-75
2022/07/18 05:25:25;;;;;;;1.70;0.52;;;18.10;60.00;;;;;;4999507;28;20582;-75
2022/07/18 05:27:52;;;;;;;2.00;0.60;;;18.20;60.50;;;;;;5045468;28;20140;-76
2022/07/18 05:30:20;;;;;;;3.58;0.73;;;18.30;59.70;;;;;;5061583;28;20053;-76
2022/07/18 05:32:48;;;;;;;2.33;0.80;;;18.40;59.50;;;;;;5055282;28;20444;-76
2022/07/18 05:35:15;;;;;;;1.73;0.63;;;18.50;59.30;;;;;;5038645;28;20044;-76
2022/07/18 05:37:42;;;;;;;2.72;0.80;;;18.60;59.20;;;;;;5043618;28;20051;-76
2022/07/18 05:40:12;;;;;;;2.63;0.85;;;18.60;59.10;;;;;;5026301;28;20094;-76
2022/07/18 05:42:39;;;;;;;3.53;0.70;;;18.60;59.10;;;;;;5054925;28;20060;-76
2022/07/18 05:45:25;;;;;;;2.70;0.80;;;18.70;59.20;;;;;;5058184;28;20060;-77
2022/07/18 05:47:53;;;;;;;1.77;0.70;;;18.70;59.20;;;;;;5045400;28;20541;-76
2022/07/18 05:50:21;;;;;;;2.55;0.63;;;18.70;59.20;;;;;;5066555;28;20059;-77
2022/07/18 05:52:49;;;;;;;0.95;0.52;;;18.70;59.40;;;;;;5016608;28;20110;-78
2022/07/18 05:55:16;;;;;;;2.38;0.60;;;18.70;59.40;;;;;;5066042;28;20828;-77
2022/07/18 05:57:43;;;;;;;2.25;0.63;;;18.70;59.60;;;;;;5038716;28;20101;-78
2022/07/18 06:00:12;;;;;;;2.72;0.65;;;18.70;59.70;;;;;;5022934;28;20067;-77
2022/07/18 06:02:39;;;;;;;2.50;0.70;;;18.80;59.80;;;;;;5026023;28;20049;-77
2022/07/18 06:05:08;;;;;;;2.88;0.73;;;19.00;59.70;;;;;;5043181;28;20044;-78
2022/07/18 06:07:49;;;;;;;2.55;1.00;;;19.10;59.40;;;;;;5046608;28;20110;-78
2022/07/18 06:10:16;;;;;;;2.33;0.80;;;19.30;59.10;;;;;;5038588;28;20071;-79
2022/07/18 06:12:46;;;;;;;2.03;0.80;;;19.50;58.80;;;;;;5054961;28;20056;-78
2022/07/18 06:15:14;;;;;;;2.13;0.60;;;19.60;58.50;;;;;;5035049;28;20045;-78
2022/07/18 06:17:41;;;;;;;3.78;1.00;;;19.70;58.10;;;;;;5054703;28;20056;-77
2022/07/18 06:20:09;;;;;;;1.98;0.73;;;19.90;57.90;;;;;;5054781;28;20043;-77
2022/07/18 06:22:36;;;;;;;3.17;0.90;;;20.10;57.80;;;;;;5071696;28;20045;-77
2022/07/18 06:25:04;;;;;;;1.38;0.60;;;20.20;57.50;;;;;;5043329;28;20459;-78
2022/07/18 06:27:31;;;;;;;2.13;0.90;;;20.30;57.40;;;;;;5066681;28;20047;-78
2022/07/18 06:29:59;;;;;;;1.45;0.73;;;20.40;57.30;;;;;;5020731;28;20059;-77
2022/07/18 06:32:26;;;;;;;2.25;0.80;;;20.50;57.20;;;;;;5033601;28;20036;-78
2022/07/18 06:34:53;;;;;;;2.47;0.65;;;20.60;57.00;;;;;;5038775;28;20041;-78
2022/07/18 06:37:21;;;;;;;2.97;0.90;;;20.60;56.90;;;;;;5015140;28;20558;-78
2022/07/18 06:39:49;;;;;;;3.35;0.80;;;20.70;56.70;;;;;;5028948;28;20052;-78
2022/07/18 06:42:15;;;;;;;2.75;1.00;;;20.80;56.50;;;;;;5049812;28;20052;-77
2022/07/18 06:44:43;;;;;;;2.45;0.82;;;21.00;56.30;;;;;;5062321;28;20102;-77
2022/07/18 06:47:10;;;;;;;2.75;0.68;;;21.10;56.10;;;;;;5038530;28;20405;-77
2022/07/18 06:49:37;;;;;;;1.75;0.55;;;21.20;55.90;;;;;;5026289;28;20044;-78
2022/07/18 06:52:04;;;;;;;1.50;0.60;;;21.30;55.70;;;;;;5054656;28;20469;-77
2022/07/18 06:54:36;;;;;;;1.88;0.57;;;21.50;55.60;;;;;;5051845;28;20066;-78
2022/07/18 06:57:06;;;;;;;1.77;0.50;;;21.60;55.40;;;;;;5038308;28;20400;-77
2022/07/18 06:59:33;;;;;;;3.47;0.60;;;21.70;55.10;;;;;;5022436;28;20584;-78
2022/07/18 07:02:00;;;;;;;3.38;0.80;;;21.80;55.00;;;;;;5037981;28;20460;-79
2022/07/18 07:04:28;;;;;;;3.17;0.70;;;21.90;54.80;;;;;;5041023;28;20390;-78
2022/07/18 07:06:55;;;;;;;2.40;0.47;;;22.00;54.60;;;;;;5025993;28;20041;-79
2022/07/18 07:09:22;;;;;;;1.15;0.30;;;22.10;54.50;;;;;;5025737;28;20059;-80
2022/07/18 07:11:49;;;;;;;1.83;0.57;;;22.20;54.20;;;;;;5040144;28;20045;-78
2022/07/18 07:14:16;;;;;;;1.33;0.40;;;22.40;54.20;;;;;;5025566;28;20041;-78
2022/07/18 07:16:45;;;;;;;1.45;0.50;;;22.40;53.90;;;;;;5056923;28;20500;-79
2022/07/18 07:19:12;;;;;;;1.63;0.40;;;22.50;53.80;;;;;;5063979;28;20079;-79
2022/07/18 07:21:39;;;;;;;0.70;0.38;;;22.70;53.70;;;;;;5043204;28;20135;-78
2022/07/18 07:24:07;;;;;;;1.27;0.40;;;22.80;53.60;;;;;;5053469;28;20451;-79
2022/07/18 07:26:34;;;;;;;1.27;0.40;;;22.90;53.50;;;;;;5041925;28;20105;-79
2022/07/18 07:29:02;;;;;;;1.08;0.50;;;23.00;53.30;;;;;;5053458;28;20070;-78
2022/07/18 07:31:29;;;;;;;1.83;0.50;;;23.10;53.20;;;;;;5052517;28;20104;-79
2022/07/18 07:33:56;;;;;;;1.20;0.30;;;23.20;53.20;;;;;;5014487;28;20052;-78
2022/07/18 07:36:31;;;;;;;1.85;0.50;;;23.20;53.00;;;;;;5057632;28;20066;-79
2022/07/18 07:38:59;;;;;;;1.30;0.40;;;23.30;52.90;;;;;;5039880;28;20053;-78
2022/07/18 07:41:26;;;;;;;0.73;0.30;;;23.40;52.80;;;;;;5038645;28;20068;-78
2022/07/18 07:43:53;;;;;;;1.48;0.38;;;23.50;52.70;;;;;;5024410;28;20068;-79
2022/07/18 07:46:20;;;;;;;1.55;0.50;;;23.70;52.50;;;;;;5041024;28;20059;-79
2022/07/18 07:48:47;;;;;;;1.00;0.40;;;23.80;52.30;;;;;;5038143;28;20079;-78
2022/07/18 07:51:15;;;;;;;0.80;0.22;;;23.90;52.10;;;;;;5015119;28;20048;-78
2022/07/18 07:53:47;;;;;;;0.82;0.22;;;24.00;52.00;;;;;;5057531;28;20090;-78
2022/07/18 07:56:18;;;;;;;0.52;0.20;;;24.10;51.90;;;;;;5040870;28;20048;-78
2022/07/18 07:58:46;;;;;;;0.95;0.40;;;24.30;51.70;;;;;;5031229;28;20759;-78
2022/07/18 08:01:17;;;;;;;1.40;0.30;;;24.40;51.40;;;;;;5021914;28;20045;-78
2022/07/18 08:03:46;;;;;;;1.77;0.55;;;24.50;51.20;;;;;;5037855;28;20052;-78
2022/07/18 08:06:13;;;;;;;1.67;0.30;;;24.60;51.10;;;;;;5051733;28;20492;-79
2022/07/18 08:08:40;;;;;;;1.20;0.20;;;24.70;50.90;;;;;;5044668;28;20097;-79
2022/07/18 08:11:07;;;;;;;0.47;0.10;;;24.90;50.70;;;;;;5053365;28;20048;-79
2022/07/18 08:13:34;;;;;;;1.70;0.30;;;25.00;50.50;;;;;;5030745;28;20111;-79
2022/07/18 08:16:04;;;;;;;0.95;0.20;;;25.10;50.20;;;;;;5015668;28;20047;-79
2022/07/18 08:18:31;;;;;;;0.70;0.40;;;25.20;50.00;;;;;;5034459;28;20560;-79
2022/07/18 08:20:58;;;;;;;0.55;0.20;;;25.30;49.90;;;;;;5014506;28;20740;-79
2022/07/18 08:23:25;;;;;;;0.95;0.20;;;25.50;49.70;;;;;;5039649;28;20048;-79
2022/07/18 08:25:53;;;;;;;0.95;0.20;;;25.60;49.30;;;;;;5024170;28;20098;-79
2022/07/18 08:28:20;;;;;;;1.35;0.35;;;25.80;49.20;;;;;;5039931;28;20408;-78
2022/07/18 08:30:47;;;;;;;0.38;0.20;;;25.90;49.00;;;;;;5048876;28;20428;-79
2022/07/18 08:33:14;;;;;;;1.42;0.30;;;26.00;48.90;;;;;;5033471;28;20498;-79
2022/07/18 08:35:42;;;;;;;1.38;0.10;;;26.20;48.70;;;;;;5039694;28;20040;-79
2022/07/18 08:38:12;;;;;;;1.23;0.20;;;26.40;48.60;;;;;;5038828;28;20052;-79
2022/07/18 08:40:39;;;;;;;0.63;0.30;;;26.40;48.30;;;;;;5038448;28;20124;-79
2022/07/18 08:43:06;;;;;;;0.10;0.10;;;26.50;48.20;;;;;;5036495;28;20052;-78
2022/07/18 08:45:55;;;;;;;0.57;0.20;;;26.60;48.20;;;;;;5038771;28;20045;-79
2022/07/18 08:48:23;;;;;;;0.73;0.20;;;26.80;48.10;;;;;;5054191;28;20048;-79
2022/07/18 08:50:50;;;;;;;0.65;0.20;;;27.00;47.90;;;;;;5050366;28;20424;-79
2022/07/18 08:53:18;;;;;;;0.77;0.25;;;27.10;47.70;;;;;;5067879;28;20396;-78
2022/07/18 08:55:46;;;;;;;1.23;0.40;;;27.20;47.50;;;;;;5038415;28;20075;-78
2022/07/18 08:58:17;;;;;;;1.48;0.40;;;27.30;47.20;;;;;;5055972;28;20044;-79
2022/07/18 09:01:04;;;;;;;0.93;0.20;;;27.40;46.60;;;;;;5052778;28;20048;-79
2022/07/18 09:03:34;;;;;;;2.05;0.38;;;27.50;46.70;;;;;;5051826;28;20109;-78
2022/07/18 09:06:11;;;;;;;1.55;0.30;;;27.60;46.40;;;;;;5038610;28;20504;-78
2022/07/18 09:08:56;;;;;;;0.35;0.15;;;27.70;46.10;;;;;;5073059;28;20110;-77
2022/07/18 09:11:23;;;;;;;1.13;0.30;;;27.80;46.10;;;;;;5052767;28;20408;-78
2022/07/18 09:14:40;;;;;;;1.38;0.32;;;27.90;45.90;;;;;;5048183;28;20125;-78
2022/07/18 09:17:14;;;;;;;0.38;0.20;;;28.00;45.50;;;;;;5055077;28;20048;-78
2022/07/18 09:19:55;;;;;;;0.55;0.10;;;28.10;45.50;;;;;;5056041;28;20094;-77
2022/07/18 09:22:23;;;;;;;0.52;0.20;;;28.20;45.20;;;;;;5073917;28;20033;-78
2022/07/18 09:25:01;;;;;;;1.52;0.25;;;28.30;45.00;;;;;;5055860;28;20048;-78
2022/07/18 09:27:40;;;;;;;0.55;0.22;;;28.50;44.70;;;;;;5044676;28;20063;-78
2022/07/18 09:30:35;;;;;;;1.15;0.30;;;28.70;44.30;;;;;;5039002;28;20052;-78
2022/07/18 09:33:02;;;;;;;1.02;0.20;;;28.80;44.20;;;;;;5070494;28;20052;-78
2022/07/18 09:35:33;;;;;;;0.30;0.10;;;29.00;43.90;;;;;;5038693;28;20040;-77
2022/07/18 09:38:09;;;;;;;0.55;0.20;;;29.20;43.70;;;;;;5051582;28;20120;-78
2022/07/18 09:40:45;;;;;;;1.15;0.20;;;29.40;43.50;;;;;;5070446;28;20036;-78
2022/07/18 09:43:15;;;;;;;0.93;0.15;;;29.60;43.20;;;;;;5051689;28;20051;-78
2022/07/18 09:45:53;;;;;;;1.13;0.30;;;29.70;42.90;;;;;;5069355;28;20045;-78
2022/07/18 09:48:26;;;;;;;0.45;0.10;;;29.90;42.50;;;;;;5038473;28;20094;-78
2022/07/18 09:51:01;;;;;;;0.60;0.20;;;30.10;42.00;;;;;;5062697;28;20404;-78
2022/07/18 09:53:31;;;;;;;0.60;0.30;;;30.30;41.80;;;;;;5056740;28;20037;-78
2022/07/18 09:56:06;;;;;;;1.23;0.20;;;30.40;41.60;;;;;;5042162;28;20040;-79
2022/07/18 09:58:36;;;;;;;0.73;0.20;;;30.60;41.50;;;;;;5055139;28;20488;-78
2022/07/18 10:01:05;;;;;;;0.40;0.15;;;30.70;41.20;;;;;;5052920;28;20117;-78
2022/07/18 10:03:32;;;;;;;0.63;0.20;;;30.70;41.20;;;;;;5021790;28;20080;-79
2022/07/18 10:06:01;;;;;;;0.98;0.20;;;30.70;41.10;;;;;;5044956;28;20111;-77
2022/07/18 10:08:30;;;;;;;0.08;0.08;;;30.70;41.20;;;;;;5021102;28;20074;-77
2022/07/18 10:10:59;;;;;;;0.32;0.10;;;30.50;41.20;;;;;;5047895;28;20052;-77
2022/07/18 10:13:28;;;;;;;0.80;0.20;;;30.30;41.30;;;;;;5049205;28;20036;-77
2022/07/18 10:15:56;;;;;;;1.55;0.47;;;30.10;41.40;;;;;;5061336;28;20060;-77
2022/07/18 10:18:25;;;;;;;0.60;0.20;;;29.90;41.60;;;;;;5039063;28;20502;-77
2022/07/18 10:20:55;;;;;;;0.63;0.20;;;29.70;42.30;;;;;;5048010;28;20158;-78
2022/07/18 10:23:26;;;;;;;0.73;0.30;;;29.50;41.80;;;;;;5037905;28;20521;-78
2022/07/18 10:26:14;;;;;;;0.40;0.20;;;29.40;41.80;;;;;;5034960;28;20488;-78
2022/07/18 10:29:15;;;;;;;0.70;0.20;;;29.60;41.50;;;;;;5053684;28;20055;-78
2022/07/18 10:32:03;;;;;;;0.63;0.20;;;29.70;41.30;;;;;;5017558;28;20057;-78
2022/07/18 10:34:36;;;;;;;0.52;0.20;;;29.80;41.20;;;;;;5054396;28;20054;-77
2022/07/18 10:37:03;;;;;;;0.55;0.20;;;29.90;40.90;;;;;;5051733;28;20472;-77
2022/07/18 10:39:34;;;;;;;0.55;0.30;;;30.10;40.80;;;;;;5057731;28;20131;-77
2022/07/18 10:42:01;;;;;;;0.55;0.25;;;30.30;40.50;;;;;;5041605;28;20044;-78
2022/07/18 10:44:31;;;;;;;0.85;0.20;;;30.30;40.40;;;;;;5058369;28;20110;-77
2022/07/18 10:47:05;;;;;;;0.68;0.20;;;30.50;40.30;;;;;;5067083;28;20186;-76
2022/07/18 10:49:47;;;;;;;1.35;0.50;;;30.60;40.10;;;;;;5042394;28;20135;-76
2022/07/18 10:52:26;;;;;;;1.15;0.15;;;30.70;39.50;;;;;;5070124;28;20071;-75
2022/07/18 10:55:05;;;;;;;1.00;0.20;;;30.70;39.00;;;;;;5051354;28;20413;-77
2022/07/18 10:57:34;;;;;;;0.70;0.20;;;30.80;39.00;;;;;;5040801;28;20068;-78
2022/07/18 11:00:10;;;;;;;0.60;0.20;;;30.90;39.00;;;;;;5057238;28;20097;-76
2022/07/18 11:02:40;;;;;;;0.80;0.20;;;31.10;38.80;;;;;;5055946;28;20052;-76
2022/07/18 11:05:22;;;;;;;0.85;0.10;;;31.20;38.80;;;;;;5058410;28;20048;-76
2022/07/18 11:08:01;;;;;;;1.67;0.25;;;31.40;38.70;;;;;;5040545;28;20105;-75
2022/07/18 11:10:44;;;;;;;0.75;0.35;;;31.40;37.80;;;;;;5037180;28;20405;-76
2022/07/18 11:13:48;;;;;;;0.73;0.32;;;31.30;37.50;;;;;;5052569;28;20045;-75
2022/07/18 11:16:22;;;;;;;0.35;0.17;;;31.20;37.60;;;;;;5041642;28;20055;-75
2022/07/18 11:18:50;;;;;;;0.95;0.20;;;31.30;37.60;;;;;;5069008;28;20045;-76
2022/07/18 11:21:18;;;;;;;1.05;0.20;;;31.30;37.60;;;;;;5061650;28;20040;-76
2022/07/18 11:23:52;;;;;;;1.30;0.40;;;31.40;37.30;;;;;;5039807;28;20055;-74
2022/07/18 11:26:22;;;;;;;1.25;0.30;;;31.50;37.00;;;;;;5057242;28;20051;-76
2022/07/18 11:28:58;;;;;;;1.00;0.20;;;31.50;36.90;;;;;;5070298;28;20043;-77
2022/07/18 11:31:27;;;;;;;0.45;0.22;;;31.70;37.00;;;;;;5065230;28;20045;-76
2022/07/18 11:33:55;;;;;;;0.43;0.20;;;31.80;36.90;;;;;;5055177;28;20040;-75
2022/07/18 11:36:27;;;;;;;0.50;0.30;;;31.90;36.70;;;;;;5072749;28;20041;-76
2022/07/18 11:38:59;;;;;;;1.58;0.30;;;31.90;36.20;;;;;;5069960;28;20036;-77
2022/07/18 11:41:27;;;;;;;0.85;0.20;;;32.00;36.10;;;;;;5063104;28;20048;-77
2022/07/18 11:43:55;;;;;;;0.73;0.30;;;32.00;36.10;;;;;;5023802;28;20500;-77
2022/07/18 11:46:26;;;;;;;0.63;0.28;;;32.10;35.70;;;;;;5040869;28;20048;-77
2022/07/18 11:49:00;;;;;;;0.93;0.28;;;32.10;35.70;;;;;;5072686;28;20047;-77
2022/07/18 11:51:38;;;;;;;0.73;0.20;;;32.30;35.70;;;;;;5057606;28;20087;-76
2022/07/18 11:54:05;;;;;;;1.67;0.30;;;32.50;35.70;;;;;;5055899;28;20527;-77
2022/07/18 11:56:32;;;;;;;1.17;0.28;;;32.60;35.40;;;;;;5056795;28;20037;-77
2022/07/18 11:59:00;;;;;;;0.85;0.30;;;32.70;35.30;;;;;;5040590;28;20437;-79
2022/07/18 12:01:31;;;;;;;0.47;0.30;;;32.90;35.20;;;;;;5032525;28;20045;-78
2022/07/18 12:04:02;;;;;;;1.92;0.40;;;33.10;34.70;;;;;;5034883;28;20488;-76
2022/07/18 12:06:29;;;;;;;1.10;0.20;;;33.30;34.50;;;;;;5040620;28;20044;-78
2022/07/18 12:09:05;;;;;;;1.08;0.28;;;33.60;34.20;;;;;;5073930;28;20066;-77
2022/07/18 12:11:35;;;;;;;0.63;0.30;;;33.90;33.90;;;;;;5025345;28;20053;-78
2022/07/18 12:14:16;;;;;;;1.45;0.30;;;34.20;34.00;;;;;;5068612;28;20040;-78
2022/07/18 12:16:47;;;;;;;0.57;0.30;;;34.60;34.00;;;;;;5023637;28;20458;-79
2022/07/18 12:19:17;;;;;;;0.60;0.30;;;35.00;33.90;;;;;;5044846;28;20052;-76
2022/07/18 12:21:54;;;;;;;0.75;0.30;;;35.50;33.70;;;;;;5071979;28;20043;-74
2022/07/18 12:24:37;;;;;;;1.85;0.30;;;35.90;33.50;;;;;;5073535;28;20062;-75
2022/07/18 12:27:20;;;;;;;0.95;0.32;;;36.20;33.30;;;;;;5073154;28;20063;-75
2022/07/18 12:30:02;;;;;;;0.88;0.30;;;36.50;33.10;;;;;;5058108;28;20060;-74
2022/07/18 12:32:42;;;;;;;0.70;0.20;;;36.70;32.90;;;;;;5046232;28;20049;-79
2022/07/18 12:35:14;;;;;;;0.80;0.25;;;37.00;32.70;;;;;;5056016;28;20117;-76
2022/07/18 12:37:51;;;;;;;0.80;0.30;;;37.10;32.10;;;;;;5055526;28;20105;-76
2022/07/18 12:40:18;;;;;;;1.08;0.45;;;37.20;31.90;;;;;;5037785;28;20068;-76
2022/07/18 12:43:10;;;;;;;0.85;0.40;;;37.30;31.80;;;;;;5040737;28;20064;-75
2022/07/18 12:45:38;;;;;;;0.98;0.30;;;37.40;31.50;;;;;;5054971;28;20135;-75
2022/07/18 12:48:08;;;;;;;1.35;0.40;;;37.60;31.60;;;;;;5055649;28;20060;-75
2022/07/18 12:50:37;;;;;;;1.13;0.40;;;37.70;31.30;;;;;;5043431;28;20044;-76
2022/07/18 12:53:04;;;;;;;0.73;0.30;;;38.00;31.30;;;;;;5060336;28;20086;-75
2022/07/18 12:55:32;;;;;;;1.38;0.45;;;38.10;31.10;;;;;;5054532;28;20041;-75
2022/07/18 12:58:00;;;;;;;0.85;0.30;;;38.50;31.00;;;;;;5055474;28;20029;-75
2022/07/18 13:00:29;;;;;;;0.90;0.20;;;38.70;30.90;;;;;;5053023;28;20055;-75